KMHT

Manchester Airport

Manchester, New Hampshire, USA
METAR KMHT 201153Z 19008KT 10SM BKN150 OVC200 M01/M06 A2965 RMK AO2 SLP057 4/005 T10061061 10000 21017 56027
Observed Flight Rules
Jan-20 @ 11:53 UTC (an hour ago) Visual Flight Rules
Wind Visibility Clouds
190° at 8 knots 10 miles
  • Broken at 15,000' AGL
  • Overcast at 20,000' AGL
Temperatures Readings Precipitation
Current -1°C / 30°F
Dewpoint -6°C / 21°F
Humidity 69%
Altimeter 29.65" Hg
Pressure 1005.7 hPa
Elevation 81
Snow Depth 5
METAR KMHT 201153Z 19008KT 10SM BKN150 OVC200 M01/M06 A2965 RMK AO2 SLP057 4/005 T10061061 10000 21017 56027
Observed Flight Rules
Jan-20 @ 11:53 UTC
(an hour ago)
VFR
Wind Visibility
190° at 8 knots 10 miles
Clouds
  • Broken at 15,000' AGL
  • Overcast at 20,000' AGL
Temperature Dewpoint
-1°C / 30°F -6°C / 21°F
Humidity Altimeter Pressure
69% 29.65" Hg 1005.7 hPa
Snow Depth
5